sensor_id;sensor_type;location;lat;lon;timestamp;pressure;altitude;pressure_sealevel;temperature;humidity
57114;BME280;42994;51.606;9.988;2023-05-01T00:01:42;99427.50;;;5.72;100.00
57114;BME280;42994;51.606;9.988;2023-05-01T00:04:08;99418.69;;;5.71;100.00
57114;BME280;42994;51.606;9.988;2023-05-01T00:06:35;99417.97;;;5.69;100.00
57114;BME280;42994;51.606;9.988;2023-05-01T00:09:02;99417.84;;;5.71;100.00
57114;BME280;42994;51.606;9.988;2023-05-01T00:11:29;99408.88;;;5.72;100.00
57114;BME280;42994;51.606;9.988;2023-05-01T00:13:55;99406.44;;;5.61;100.00
57114;BME280;42994;51.606;9.988;2023-05-01T00:16:22;99399.91;;;5.55;100.00
57114;BME280;42994;51.606;9.988;2023-05-01T00:18:50;99404.72;;;5.42;100.00
57114;BME280;42994;51.606;9.988;2023-05-01T00:21:17;99399.94;;;5.45;100.00
57114;BME280;42994;51.606;9.988;2023-05-01T00:23:44;99403.28;;;5.47;100.00
57114;BME280;42994;51.606;9.988;2023-05-01T00:26:11;99400.47;;;5.49;100.00
57114;BME280;42994;51.606;9.988;2023-05-01T00:28:41;99390.16;;;5.18;100.00
57114;BME280;42994;51.606;9.988;2023-05-01T00:31:08;99396.28;;;5.28;100.00
57114;BME280;42994;51.606;9.988;2023-05-01T00:33:35;99386.38;;;4.93;100.00
57114;BME280;42994;51.606;9.988;2023-05-01T00:36:03;99388.94;;;5.12;100.00
57114;BME280;42994;51.606;9.988;2023-05-01T00:38:30;99387.50;;;4.90;100.00
57114;BME280;42994;51.606;9.988;2023-05-01T00:40:56;99385.94;;;4.50;100.00
57114;BME280;42994;51.606;9.988;2023-05-01T00:43:23;99387.81;;;4.77;100.00
57114;BME280;42994;51.606;9.988;2023-05-01T00:45:50;99385.25;;;4.95;100.00
57114;BME280;42994;51.606;9.988;2023-05-01T00:48:17;99386.47;;;5.01;100.00
57114;BME280;42994;51.606;9.988;2023-05-01T00:50:44;99374.88;;;5.02;100.00
57114;BME280;42994;51.606;9.988;2023-05-01T00:53:12;99374.75;;;4.94;100.00
57114;BME280;42994;51.606;9.988;2023-05-01T00:55:40;99366.50;;;4.97;100.00
57114;BME280;42994;51.606;9.988;2023-05-01T00:58:09;99369.72;;;4.91;100.00
57114;BME280;42994;51.606;9.988;2023-05-01T01:00:36;99364.41;;;4.91;100.00
57114;BME280;42994;51.606;9.988;2023-05-01T01:03:03;99356.34;;;4.82;100.00
57114;BME280;42994;51.606;9.988;2023-05-01T01:05:31;99362.47;;;4.93;100.00
57114;BME280;42994;51.606;9.988;2023-05-01T01:08:06;99349.44;;;4.62;100.00
57114;BME280;42994;51.606;9.988;2023-05-01T01:10:43;99356.59;;;4.52;100.00
57114;BME280;42994;51.606;9.988;2023-05-01T01:13:19;99355.41;;;4.36;100.00
57114;BME280;42994;51.606;9.988;2023-05-01T01:15:56;99347.22;;;4.57;100.00
57114;BME280;42994;51.606;9.988;2023-05-01T01:18:29;99354.34;;;4.57;100.00
57114;BME280;42994;51.606;9.988;2023-05-01T01:21:06;99341.19;;;4.65;100.00
57114;BME280;42994;51.606;9.988;2023-05-01T01:23:46;99344.34;;;4.41;100.00
57114;BME280;42994;51.606;9.988;2023-05-01T01:26:51;99344.22;;;4.23;100.00
57114;BME280;42994;51.606;9.988;2023-05-01T01:29:45;99341.31;;;4.26;100.00
57114;BME280;42994;51.606;9.988;2023-05-01T01:32:40;99333.84;;;4.49;100.00
57114;BME280;42994;51.606;9.988;2023-05-01T01:35:18;99329.66;;;4.47;100.00
57114;BME280;42994;51.606;9.988;2023-05-01T01:37:49;99320.41;;;4.51;100.00
57114;BME280;42994;51.606;9.988;2023-05-01T01:40:22;99322.09;;;4.52;100.00
57114;BME280;42994;51.606;9.988;2023-05-01T01:42:53;99312.16;;;4.07;100.00
57114;BME280;42994;51.606;9.988;2023-05-01T01:45:21;99319.41;;;4.04;100.00
57114;BME280;42994;51.606;9.988;2023-05-01T01:47:50;99317.16;;;4.19;100.00
57114;BME280;42994;51.606;9.988;2023-05-01T01:50:21;99312.25;;;4.24;100.00
57114;BME280;42994;51.606;9.988;2023-05-01T01:52:51;99312.97;;;4.17;100.00
57114;BME280;42994;51.606;9.988;2023-05-01T01:55:21;99299.63;;;3.89;100.00
57114;BME280;42994;51.606;9.988;2023-05-01T01:57:52;99308.00;;;3.94;100.00
57114;BME280;42994;51.606;9.988;2023-05-01T02:00:20;99297.13;;;3.78;100.00
57114;BME280;42994;51.606;9.988;2023-05-01T02:02:49;99293.72;;;4.15;100.00
57114;BME280;42994;51.606;9.988;2023-05-01T02:05:20;99296.53;;;4.03;100.00
57114;BME280;42994;51.606;9.988;2023-05-01T02:07:49;99290.22;;;4.04;100.00
57114;BME280;42994;51.606;9.988;2023-05-01T02:10:16;99290.16;;;3.77;100.00
57114;BME280;42994;51.606;9.988;2023-05-01T02:12:45;99280.91;;;3.81;100.00
57114;BME280;42994;51.606;9.988;2023-05-01T02:15:14;99283.59;;;3.71;100.00
57114;BME280;42994;51.606;9.988;2023-05-01T02:17:43;99276.72;;;3.88;100.00
57114;BME280;42994;51.606;9.988;2023-05-01T02:20:11;99276.19;;;3.65;100.00
57114;BME280;42994;51.606;9.988;2023-05-01T02:22:41;99275.94;;;3.78;100.00
57114;BME280;42994;51.606;9.988;2023-05-01T02:25:09;99276.44;;;3.81;100.00
57114;BME280;42994;51.606;9.988;2023-05-01T02:27:38;99273.97;;;3.80;100.00
57114;BME280;42994;51.606;9.988;2023-05-01T02:30:06;99270.03;;;3.84;100.00
57114;BME280;42994;51.606;9.988;2023-05-01T02:32:34;99262.53;;;3.70;100.00
57114;BME280;42994;51.606;9.988;2023-05-01T02:35:00;99260.41;;;3.83;100.00
57114;BME280;42994;51.606;9.988;2023-05-01T02:37:27;99249.25;;;3.70;100.00
57114;BME280;42994;51.606;9.988;2023-05-01T02:39:57;99246.91;;;3.57;100.00
57114;BME280;42994;51.606;9.988;2023-05-01T02:42:25;99247.75;;;3.67;100.00
57114;BME280;42994;51.606;9.988;2023-05-01T02:44:56;99244.81;;;3.41;100.00
57114;BME280;42994;51.606;9.988;2023-05-01T02:47:23;99246.19;;;3.64;100.00
57114;BME280;42994;51.606;9.988;2023-05-01T02:49:53;99239.34;;;3.72;100.00
57114;BME280;42994;51.606;9.988;2023-05-01T02:52:20;99229.47;;;3.64;100.00
57114;BME280;42994;51.606;9.988;2023-05-01T02:54:54;99227.78;;;3.63;100.00
57114;BME280;42994;51.606;9.988;2023-05-01T02:57:22;99223.59;;;3.70;100.00
57114;BME280;42994;51.606;9.988;2023-05-01T02:59:49;99224.44;;;3.71;100.00
57114;BME280;42994;51.606;9.988;2023-05-01T03:02:16;99229.34;;;3.17;100.00
57114;BME280;42994;51.606;9.988;2023-05-01T03:04:43;99220.44;;;3.27;100.00
57114;BME280;42994;51.606;9.988;2023-05-01T03:07:10;99216.78;;;3.58;100.00
57114;BME280;42994;51.606;9.988;2023-05-01T03:09:36;99217.06;;;3.55;100.00
57114;BME280;42994;51.606;9.988;2023-05-01T03:12:04;99211.06;;;3.53;100.00
57114;BME280;42994;51.606;9.988;2023-05-01T03:14:32;99210.69;;;3.38;100.00
57114;BME280;42994;51.606;9.988;2023-05-01T03:16:59;99209.00;;;3.27;100.00
57114;BME280;42994;51.606;9.988;2023-05-01T03:19:26;99212.47;;;3.37;100.00
57114;BME280;42994;51.606;9.988;2023-05-01T03:21:52;99201.16;;;3.55;100.00
57114;BME280;42994;51.606;9.988;2023-05-01T03:24:19;99204.63;;;3.55;100.00
57114;BME280;42994;51.606;9.988;2023-05-01T03:26:46;99203.84;;;3.45;100.00
57114;BME280;42994;51.606;9.988;2023-05-01T03:29:12;99207.31;;;3.36;100.00
57114;BME280;42994;51.606;9.988;2023-05-01T03:31:41;99204.94;;;3.33;100.00
57114;BME280;42994;51.606;9.988;2023-05-01T03:34:09;99193.25;;;3.25;100.00
57114;BME280;42994;51.606;9.988;2023-05-01T03:36:36;99184.00;;;3.39;100.00
57114;BME280;42994;51.606;9.988;2023-05-01T03:39:03;99191.13;;;3.39;100.00
57114;BME280;42994;51.606;9.988;2023-05-01T03:42:11;99179.47;;;3.12;100.00
57114;BME280;42994;51.606;9.988;2023-05-01T03:44:40;99186.53;;;3.12;100.00
57114;BME280;42994;51.606;9.988;2023-05-01T03:47:08;99178.47;;;3.33;100.00
57114;BME280;42994;51.606;9.988;2023-05-01T03:49:39;99187.50;;;3.01;100.00
57114;BME280;42994;51.606;9.988;2023-05-01T03:52:08;99181.25;;;3.12;100.00
57114;BME280;42994;51.606;9.988;2023-05-01T03:54:35;99185.31;;;2.96;100.00
57114;BME280;42994;51.606;9.988;2023-05-01T03:57:17;99178.88;;;2.79;100.00
57114;BME280;42994;51.606;9.988;2023-05-01T03:59:45;99173.03;;;3.05;100.00
57114;BME280;42994;51.606;9.988;2023-05-01T04:02:13;99182.91;;;2.83;100.00
57114;BME280;42994;51.606;9.988;2023-05-01T04:04:41;99172.06;;;2.96;100.00
57114;BME280;42994;51.606;9.988;2023-05-01T04:07:08;99167.19;;;3.01;100.00
57114;BME280;42994;51.606;9.988;2023-05-01T04:09:34;99165.91;;;3.15;100.00
57114;BME280;42994;51.606;9.988;2023-05-01T04:12:01;99168.13;;;3.10;100.00
57114;BME280;42994;51.606;9.988;2023-05-01T04:14:29;99166.47;;;3.19;100.00
57114;BME280;42994;51.606;9.988;2023-05-01T04:16:56;99166.59;;;3.17;100.00
57114;BME280;42994;51.606;9.988;2023-05-01T04:19:25;99161.03;;;2.91;100.00
57114;BME280;42994;51.606;9.988;2023-05-01T04:21:56;99165.38;;;2.92;100.00
57114;BME280;42994;51.606;9.988;2023-05-01T04:24:27;99161.72;;;3.03;100.00
57114;BME280;42994;51.606;9.988;2023-05-01T04:26:54;99164.94;;;3.06;100.00
57114;BME280;42994;51.606;9.988;2023-05-01T04:29:20;99156.28;;;3.04;100.00
57114;BME280;42994;51.606;9.988;2023-05-01T04:31:50;99158.38;;;3.01;100.00
57114;BME280;42994;51.606;9.988;2023-05-01T04:34:18;99161.75;;;3.13;100.00
57114;BME280;42994;51.606;9.988;2023-05-01T04:36:46;99162.00;;;3.19;100.00
57114;BME280;42994;51.606;9.988;2023-05-01T04:39:13;99157.41;;;3.21;100.00
57114;BME280;42994;51.606;9.988;2023-05-01T04:41:41;99155.19;;;3.17;100.00
57114;BME280;42994;51.606;9.988;2023-05-01T04:44:07;99152.00;;;3.03;100.00
57114;BME280;42994;51.606;9.988;2023-05-01T04:46:34;99151.41;;;3.10;100.00
57114;BME280;42994;51.606;9.988;2023-05-01T04:49:01;99151.25;;;3.21;100.00
57114;BME280;42994;51.606;9.988;2023-05-01T04:51:27;99149.72;;;3.28;100.00
57114;BME280;42994;51.606;9.988;2023-05-01T04:53:56;99156.00;;;3.37;100.00
57114;BME280;42994;51.606;9.988;2023-05-01T04:56:25;99154.72;;;3.41;100.00
57114;BME280;42994;51.606;9.988;2023-05-01T04:58:56;99151.66;;;3.45;100.00
57114;BME280;42994;51.606;9.988;2023-05-01T05:01:25;99143.97;;;3.52;100.00
57114;BME280;42994;51.606;9.988;2023-05-01T05:03:53;99153.19;;;3.58;100.00
57114;BME280;42994;51.606;9.988;2023-05-01T05:06:19;99148.69;;;3.58;100.00
57114;BME280;42994;51.606;9.988;2023-05-01T05:08:47;99147.97;;;3.66;100.00
57114;BME280;42994;51.606;9.988;2023-05-01T05:11:18;99147.25;;;3.74;100.00
57114;BME280;42994;51.606;9.988;2023-05-01T05:13:55;99140.97;;;3.75;100.00
57114;BME280;42994;51.606;9.988;2023-05-01T05:16:22;99153.38;;;3.84;100.00
57114;BME280;42994;51.606;9.988;2023-05-01T05:18:49;99152.69;;;3.82;100.00
57114;BME280;42994;51.606;9.988;2023-05-01T05:21:16;99150.72;;;3.84;100.00
57114;BME280;42994;51.606;9.988;2023-05-01T05:23:48;99152.22;;;3.96;100.00
57114;BME280;42994;51.606;9.988;2023-05-01T05:26:15;99150.25;;;3.98;100.00
57114;BME280;42994;51.606;9.988;2023-05-01T05:28:43;99142.84;;;4.02;100.00
57114;BME280;42994;51.606;9.988;2023-05-01T05:31:10;99144.16;;;4.16;100.00
57114;BME280;42994;51.606;9.988;2023-05-01T05:33:37;99141.75;;;4.22;100.00
57114;BME280;42994;51.606;9.988;2023-05-01T05:36:05;99138.88;;;4.34;100.00
57114;BME280;42994;51.606;9.988;2023-05-01T05:38:37;99139.81;;;4.42;100.00
57114;BME280;42994;51.606;9.988;2023-05-01T05:41:06;99149.66;;;4.60;100.00
57114;BME280;42994;51.606;9.988;2023-05-01T05:43:34;99138.69;;;4.63;100.00
57114;BME280;42994;51.606;9.988;2023-05-01T05:46:02;99141.53;;;4.79;100.00
57114;BME280;42994;51.606;9.988;2023-05-01T05:48:31;99145.34;;;4.95;100.00
57114;BME280;42994;51.606;9.988;2023-05-01T05:50:58;99137.31;;;5.31;100.00
57114;BME280;42994;51.606;9.988;2023-05-01T05:53:25;99136.91;;;5.44;100.00
57114;BME280;42994;51.606;9.988;2023-05-01T05:55:53;99138.91;;;5.68;100.00
57114;BME280;42994;51.606;9.988;2023-05-01T05:58:19;99141.94;;;5.99;100.00
57114;BME280;42994;51.606;9.988;2023-05-01T06:00:48;99136.25;;;6.02;100.00
57114;BME280;42994;51.606;9.988;2023-05-01T06:03:18;99139.69;;;5.94;100.00
57114;BME280;42994;51.606;9.988;2023-05-01T06:05:45;99131.88;;;6.27;100.00
57114;BME280;42994;51.606;9.988;2023-05-01T06:08:12;99133.72;;;6.35;100.00
57114;BME280;42994;51.606;9.988;2023-05-01T06:10:41;99125.78;;;6.51;100.00
57114;BME280;42994;51.606;9.988;2023-05-01T06:13:09;99124.81;;;6.61;100.00
57114;BME280;42994;51.606;9.988;2023-05-01T06:15:36;99126.53;;;6.95;100.00
57114;BME280;42994;51.606;9.988;2023-05-01T06:18:03;99128.88;;;7.06;100.00
57114;BME280;42994;51.606;9.988;2023-05-01T06:20:32;99129.38;;;7.09;100.00
57114;BME280;42994;51.606;9.988;2023-05-01T06:22:58;99122.03;;;7.28;100.00
57114;BME280;42994;51.606;9.988;2023-05-01T06:25:39;99118.19;;;7.39;100.00
57114;BME280;42994;51.606;9.988;2023-05-01T06:28:05;99112.38;;;7.43;100.00
57114;BME280;42994;51.606;9.988;2023-05-01T06:30:33;99122.16;;;7.59;100.00
57114;BME280;42994;51.606;9.988;2023-05-01T06:33:01;99111.31;;;7.61;100.00
57114;BME280;42994;51.606;9.988;2023-05-01T06:35:28;99113.19;;;7.52;100.00
57114;BME280;42994;51.606;9.988;2023-05-01T06:37:56;99117.44;;;7.86;100.00
57114;BME280;42994;51.606;9.988;2023-05-01T06:40:24;99114.91;;;7.93;100.00
57114;BME280;42994;51.606;9.988;2023-05-01T06:42:51;99112.56;;;7.98;100.00
57114;BME280;42994;51.606;9.988;2023-05-01T06:45:18;99119.72;;;7.97;100.00
57114;BME280;42994;51.606;9.988;2023-05-01T06:47:45;99115.34;;;8.13;100.00
57114;BME280;42994;51.606;9.988;2023-05-01T06:50:11;99119.16;;;8.18;100.00
57114;BME280;42994;51.606;9.988;2023-05-01T06:52:39;99111.16;;;8.18;100.00
57114;BME280;42994;51.606;9.988;2023-05-01T06:55:08;99110.59;;;8.23;100.00
57114;BME280;42994;51.606;9.988;2023-05-01T06:57:35;99108.06;;;8.38;100.00
57114;BME280;42994;51.606;9.988;2023-05-01T07:00:02;99101.78;;;8.54;100.00
57114;BME280;42994;51.606;9.988;2023-05-01T07:02:28;99107.28;;;8.60;100.00
57114;BME280;42994;51.606;9.988;2023-05-01T07:04:55;99108.56;;;8.64;100.00
57114;BME280;42994;51.606;9.988;2023-05-01T07:07:22;99112.03;;;8.73;100.00
57114;BME280;42994;51.606;9.988;2023-05-01T07:09:48;99108.53;;;8.73;100.00
57114;BME280;42994;51.606;9.988;2023-05-01T07:12:17;99100.34;;;8.97;100.00
57114;BME280;42994;51.606;9.988;2023-05-01T07:14:43;99096.09;;;9.03;100.00
57114;BME280;42994;51.606;9.988;2023-05-01T07:17:10;99093.84;;;9.15;100.00
57114;BME280;42994;51.606;9.988;2023-05-01T07:19:36;99090.28;;;9.22;100.00
57114;BME280;42994;51.606;9.988;2023-05-01T07:22:03;99089.81;;;9.34;100.00
57114;BME280;42994;51.606;9.988;2023-05-01T07:24:30;99095.31;;;9.55;100.00
57114;BME280;42994;51.606;9.988;2023-05-01T07:26:56;99091.69;;;9.63;100.00
57114;BME280;42994;51.606;9.988;2023-05-01T07:29:25;99085.16;;;9.66;100.00
57114;BME280;42994;51.606;9.988;2023-05-01T07:31:52;99089.66;;;9.80;100.00
57114;BME280;42994;51.606;9.988;2023-05-01T07:34:19;99085.69;;;10.06;100.00
57114;BME280;42994;51.606;9.988;2023-05-01T07:36:45;99077.44;;;10.22;100.00
57114;BME280;42994;51.606;9.988;2023-05-01T07:39:12;99073.19;;;10.43;100.00
57114;BME280;42994;51.606;9.988;2023-05-01T07:41:39;99069.66;;;10.57;100.00
57114;BME280;42994;51.606;9.988;2023-05-01T07:44:05;99065.03;;;10.72;100.00
57114;BME280;42994;51.606;9.988;2023-05-01T07:46:33;99060.50;;;10.73;100.00
57114;BME280;42994;51.606;9.988;2023-05-01T07:49:01;99062.44;;;10.79;100.00
57114;BME280;42994;51.606;9.988;2023-05-01T07:51:28;99059.34;;;10.82;100.00
57114;BME280;42994;51.606;9.988;2023-05-01T07:53:55;99058.72;;;10.80;100.00
57114;BME280;42994;51.606;9.988;2023-05-01T07:56:21;99058.41;;;10.90;100.00
57114;BME280;42994;51.606;9.988;2023-05-01T07:58:48;99057.88;;;11.01;100.00
57114;BME280;42994;51.606;9.988;2023-05-01T08:01:15;99051.34;;;11.10;100.00
57114;BME280;42994;51.606;9.988;2023-05-01T08:03:43;99048.84;;;11.30;100.00
57114;BME280;42994;51.606;9.988;2023-05-01T08:06:09;99044.97;;;11.40;100.00
57114;BME280;42994;51.606;9.988;2023-05-01T08:08:36;99043.84;;;11.62;100.00
57114;BME280;42994;51.606;9.988;2023-05-01T08:11:03;99045.09;;;11.60;100.00
57114;BME280;42994;51.606;9.988;2023-05-01T08:13:30;99041.59;;;11.59;100.00
57114;BME280;42994;51.606;9.988;2023-05-01T08:15:59;99040.66;;;11.80;100.00
57114;BME280;42994;51.606;9.988;2023-05-01T08:18:26;99033.78;;;11.99;100.00
57114;BME280;42994;51.606;9.988;2023-05-01T08:20:54;99040.66;;;12.22;99.85
57114;BME280;42994;51.606;9.988;2023-05-01T08:23:21;99031.81;;;12.35;99.83
57114;BME280;42994;51.606;9.988;2023-05-01T08:25:50;99025.63;;;12.34;99.73
57114;BME280;42994;51.606;9.988;2023-05-01T08:28:17;99036.00;;;12.57;98.35
57114;BME280;42994;51.606;9.988;2023-05-01T08:30:44;99032.69;;;12.48;98.10
57114;BME280;42994;51.606;9.988;2023-05-01T08:33:13;99024.63;;;12.68;98.51
57114;BME280;42994;51.606;9.988;2023-05-01T08:35:40;99024.22;;;12.72;98.19
57114;BME280;42994;51.606;9.988;2023-05-01T08:38:09;99022.16;;;12.94;97.75
57114;BME280;42994;51.606;9.988;2023-05-01T08:40:37;99019.06;;;12.97;96.49
57114;BME280;42994;51.606;9.988;2023-05-01T08:43:04;99017.72;;;13.79;96.43
57114;BME280;42994;51.606;9.988;2023-05-01T08:45:32;99013.41;;;13.65;95.55
57114;BME280;42994;51.606;9.988;2023-05-01T08:48:04;99009.69;;;13.73;93.36
57114;BME280;42994;51.606;9.988;2023-05-01T08:50:32;99008.34;;;13.95;92.61
57114;BME280;42994;51.606;9.988;2023-05-01T08:53:01;99005.94;;;14.26;91.45
57114;BME280;42994;51.606;9.988;2023-05-01T08:55:30;98999.56;;;14.45;90.28
57114;BME280;42994;51.606;9.988;2023-05-01T08:57:57;99001.78;;;14.23;90.62
57114;BME280;42994;51.606;9.988;2023-05-01T09:00:25;98999.63;;;14.77;87.77
57114;BME280;42994;51.606;9.988;2023-05-01T09:02:54;98989.47;;;14.72;87.73
57114;BME280;42994;51.606;9.988;2023-05-01T09:05:21;98989.03;;;15.01;86.79
57114;BME280;42994;51.606;9.988;2023-05-01T09:07:48;98988.50;;;14.92;84.52
57114;BME280;42994;51.606;9.988;2023-05-01T09:10:16;98982.16;;;15.05;85.20
57114;BME280;42994;51.606;9.988;2023-05-01T09:12:48;98983.59;;;15.26;84.46
57114;BME280;42994;51.606;9.988;2023-05-01T09:15:17;98975.38;;;14.95;80.98
57114;BME280;42994;51.606;9.988;2023-05-01T09:17:44;98985.88;;;14.15;83.98
57114;BME280;42994;51.606;9.988;2023-05-01T09:20:11;98985.91;;;14.08;85.76
57114;BME280;42994;51.606;9.988;2023-05-01T09:22:38;98977.94;;;14.20;85.60
57114;BME280;42994;51.606;9.988;2023-05-01T09:25:06;98981.94;;;15.06;88.78
57114;BME280;42994;51.606;9.988;2023-05-01T09:27:36;98970.13;;;16.00;84.79
57114;BME280;42994;51.606;9.988;2023-05-01T09:30:05;98966.53;;;15.87;83.58
57114;BME280;42994;51.606;9.988;2023-05-01T09:32:33;98966.44;;;16.43;83.72
57114;BME280;42994;51.606;9.988;2023-05-01T09:35:09;98963.88;;;16.18;81.70
57114;BME280;42994;51.606;9.988;2023-05-01T09:37:36;98957.44;;;16.30;79.27
57114;BME280;42994;51.606;9.988;2023-05-01T09:40:05;98948.06;;;16.45;77.19
57114;BME280;42994;51.606;9.988;2023-05-01T09:42:33;98948.91;;;16.57;76.31
57114;BME280;42994;51.606;9.988;2023-05-01T09:45:01;98953.66;;;16.31;76.76
57114;BME280;42994;51.606;9.988;2023-05-01T09:47:30;98944.06;;;16.36;79.50
57114;BME280;42994;51.606;9.988;2023-05-01T09:49:58;98943.03;;;16.48;80.74
57114;BME280;42994;51.606;9.988;2023-05-01T09:52:26;98940.09;;;16.62;80.29
57114;BME280;42994;51.606;9.988;2023-05-01T09:55:12;98944.72;;;16.19;77.68
57114;BME280;42994;51.606;9.988;2023-05-01T09:57:39;98944.16;;;17.06;79.70
57114;BME280;42994;51.606;9.988;2023-05-01T10:00:08;98943.91;;;16.84;78.60
57114;BME280;42994;51.606;9.988;2023-05-01T10:02:37;98932.56;;;16.64;76.25
57114;BME280;42994;51.606;9.988;2023-05-01T10:05:04;98936.88;;;17.19;78.28
57114;BME280;42994;51.606;9.988;2023-05-01T10:07:32;98932.69;;;16.81;75.38
57114;BME280;42994;51.606;9.988;2023-05-01T10:10:14;98931.78;;;17.22;76.12
57114;BME280;42994;51.606;9.988;2023-05-01T10:12:41;98929.19;;;16.80;73.05
57114;BME280;42994;51.606;9.988;2023-05-01T10:15:08;98927.41;;;17.45;74.62
57114;BME280;42994;51.606;9.988;2023-05-01T10:17:37;98926.63;;;17.09;74.93
57114;BME280;42994;51.606;9.988;2023-05-01T10:20:05;98926.50;;;17.04;75.65
57114;BME280;42994;51.606;9.988;2023-05-01T10:22:32;98930.81;;;16.58;72.99
57114;BME280;42994;51.606;9.988;2023-05-01T10:24:59;98918.03;;;17.00;72.96
57114;BME280;42994;51.606;9.988;2023-05-01T10:27:27;98919.31;;;17.09;71.79
57114;BME280;42994;51.606;9.988;2023-05-01T10:29:53;98916.59;;;17.33;69.42
57114;BME280;42994;51.606;9.988;2023-05-01T10:32:51;98910.59;;;17.83;69.10
57114;BME280;42994;51.606;9.988;2023-05-01T10:35:25;98903.22;;;17.96;66.87
57114;BME280;42994;51.606;9.988;2023-05-01T10:37:57;98896.06;;;17.90;67.30
57114;BME280;42994;51.606;9.988;2023-05-01T10:40:46;98893.56;;;18.00;68.99
57114;BME280;42994;51.606;9.988;2023-05-01T10:43:15;98897.94;;;18.18;68.49
57114;BME280;42994;51.606;9.988;2023-05-01T10:45:42;98885.03;;;18.08;67.50
57114;BME280;42994;51.606;9.988;2023-05-01T10:48:55;98899.28;;;17.34;65.97
57114;BME280;42994;51.606;9.988;2023-05-01T10:51:23;98896.81;;;17.21;68.94
57114;BME280;42994;51.606;9.988;2023-05-01T10:56:46;98885.94;;;17.44;69.59
57114;BME280;42994;51.606;9.988;2023-05-01T10:59:13;98891.66;;;16.84;65.53
57114;BME280;42994;51.606;9.988;2023-05-01T11:01:40;98891.28;;;17.27;66.94
57114;BME280;42994;51.606;9.988;2023-05-01T11:07:17;98883.06;;;16.99;66.99
57114;BME280;42994;51.606;9.988;2023-05-01T11:09:45;98878.59;;;17.16;68.57
57114;BME280;42994;51.606;9.988;2023-05-01T11:12:48;98870.59;;;16.86;66.15
57114;BME280;42994;51.606;9.988;2023-05-01T11:15:47;98865.00;;;17.28;67.88
57114;BME280;42994;51.606;9.988;2023-05-01T11:18:45;98850.75;;;17.33;66.92
57114;BME280;42994;51.606;9.988;2023-05-01T11:21:17;98856.44;;;17.60;65.96
57114;BME280;42994;51.606;9.988;2023-05-01T11:24:25;98860.00;;;17.77;66.82
57114;BME280;42994;51.606;9.988;2023-05-01T11:26:57;98859.06;;;17.55;64.59
57114;BME280;42994;51.606;9.988;2023-05-01T11:29:35;98862.84;;;17.82;66.34
57114;BME280;42994;51.606;9.988;2023-05-01T11:32:04;98860.44;;;17.57;68.29
57114;BME280;42994;51.606;9.988;2023-05-01T11:34:36;98864.31;;;17.61;67.51
57114;BME280;42994;51.606;9.988;2023-05-01T11:37:41;98857.81;;;17.74;67.38
57114;BME280;42994;51.606;9.988;2023-05-01T11:40:20;98848.19;;;18.12;64.36
57114;BME280;42994;51.606;9.988;2023-05-01T11:42:48;98847.91;;;18.42;65.83
57114;BME280;42994;51.606;9.988;2023-05-01T11:45:19;98844.59;;;18.40;66.92
57114;BME280;42994;51.606;9.988;2023-05-01T11:47:46;98846.72;;;18.55;64.76
57114;BME280;42994;51.606;9.988;2023-05-01T11:50:16;98838.44;;;18.28;64.23
57114;BME280;42994;51.606;9.988;2023-05-01T11:52:46;98835.03;;;18.04;62.63
57114;BME280;42994;51.606;9.988;2023-05-01T11:55:14;98839.41;;;17.76;62.12
57114;BME280;42994;51.606;9.988;2023-05-01T11:57:47;98832.66;;;17.91;62.56
57114;BME280;42994;51.606;9.988;2023-05-01T12:00:15;98829.19;;;17.95;60.84
57114;BME280;42994;51.606;9.988;2023-05-01T12:02:54;98832.69;;;18.24;61.94
57114;BME280;42994;51.606;9.988;2023-05-01T12:05:23;98826.00;;;18.15;60.68
57114;BME280;42994;51.606;9.988;2023-05-01T12:07:51;98825.25;;;18.54;60.30
57114;BME280;42994;51.606;9.988;2023-05-01T12:10:47;98819.44;;;18.62;59.33
57114;BME280;42994;51.606;9.988;2023-05-01T12:13:16;98816.72;;;18.62;60.86
57114;BME280;42994;51.606;9.988;2023-05-01T12:19:07;98832.97;;;18.96;63.11
57114;BME280;42994;51.606;9.988;2023-05-01T12:21:39;98829.09;;;18.92;62.56
57114;BME280;42994;51.606;9.988;2023-05-01T12:24:10;98827.44;;;19.08;64.51
57114;BME280;42994;51.606;9.988;2023-05-01T12:26:59;98834.72;;;19.07;64.86
57114;BME280;42994;51.606;9.988;2023-05-01T12:29:48;98838.16;;;18.80;63.25
57114;BME280;42994;51.606;9.988;2023-05-01T12:32:15;98822.34;;;18.94;61.62
57114;BME280;42994;51.606;9.988;2023-05-01T12:34:42;98827.34;;;19.25;63.72
57114;BME280;42994;51.606;9.988;2023-05-01T12:37:08;98820.28;;;19.24;63.56
57114;BME280;42994;51.606;9.988;2023-05-01T12:39:37;98825.03;;;19.11;63.79
57114;BME280;42994;51.606;9.988;2023-05-01T12:45:53;98822.72;;;19.25;64.86
57114;BME280;42994;51.606;9.988;2023-05-01T12:48:42;98817.31;;;19.25;65.44
57114;BME280;42994;51.606;9.988;2023-05-01T12:51:29;98817.00;;;19.21;66.48
57114;BME280;42994;51.606;9.988;2023-05-01T12:54:02;98815.22;;;19.10;63.24
57114;BME280;42994;51.606;9.988;2023-05-01T12:56:30;98808.25;;;18.97;61.75
57114;BME280;42994;51.606;9.988;2023-05-01T13:02:18;98796.59;;;18.97;60.31
57114;BME280;42994;51.606;9.988;2023-05-01T13:04:48;98803.09;;;19.18;61.35
57114;BME280;42994;51.606;9.988;2023-05-01T13:07:17;98791.09;;;18.92;58.36
57114;BME280;42994;51.606;9.988;2023-05-01T13:09:51;98793.63;;;19.20;61.71
57114;BME280;42994;51.606;9.988;2023-05-01T13:12:17;98791.22;;;19.24;60.09
57114;BME280;42994;51.606;9.988;2023-05-01T13:14:45;98783.94;;;19.30;59.62
57114;BME280;42994;51.606;9.988;2023-05-01T13:17:24;98781.72;;;19.27;60.10
57114;BME280;42994;51.606;9.988;2023-05-01T13:19:53;98785.44;;;19.43;61.07
57114;BME280;42994;51.606;9.988;2023-05-01T13:29:12;98777.78;;;19.39;59.98
57114;BME280;42994;51.606;9.988;2023-05-01T13:31:45;98780.66;;;19.28;59.74
57114;BME280;42994;51.606;9.988;2023-05-01T13:34:16;98781.19;;;19.02;59.06
57114;BME280;42994;51.606;9.988;2023-05-01T13:36:47;98778.00;;;19.11;58.50
57114;BME280;42994;51.606;9.988;2023-05-01T13:40:02;98774.28;;;19.17;58.83